Portada
METAR-TAF:

METAR-TAF

Aeroports :

Gulf Shores, Alabama, Estats Units d'Amèrica

latitud: 30-17-23N, longitud: 087-40-18W, altitud: 5 m

Observació

L'informe es va fer fa 27 minuts, a les 16:35 UTC
Vent 6 kt del Est
Temperatura 30°C
Humitat 49%
Pressió 1019 hPa
Visibilitat: 16.1 km
Cel clar

METAR: KJKA 011635Z AUTO 10006KT 10SM CLR 30/18 A3010 RMK AO2 T03030180

Hora: 12:02 (17:02 UTC)


TAF: manca

Observacions i pronòstics meteorològics de més de 4000 aeroports (METAR i TAF).

Les estacions disponibles són els punts grocs i vermells al mapa.

Posi el ratolí al punt desitjat per veure el nom de l'estació.

Feu clic per veure les observacions i els pronòstics meteorològics.

Per canviar el mapa: feu clic els botons verds amb una creu de color negre per apropar; al botó verd amb un guió per allunyar la imatge; o en les fletxes verdes per a mapes adjacents.


METAR-TAF: